This is the latest recevied weather packets stored in our database for station/object WX5RP. If no packets are shown the sender has not sent any weather packets the latest 10 day(s).
| Time | Temp. | Humidity | Pressure | Rain* | Wind** | Luminosity | Snow |
|---|---|---|---|---|---|---|---|
| 1787795418 | 23.33° C | 32% | 1018.1 hPa | 0 mm | - | 71 W/m² | - |
| 1787794816 | 22.78° C | 35% | 1018.2 hPa | 0 mm | - | 89 W/m² | - |
| 1787794218 | 22.78° C | 36% | 1018.2 hPa | 0 mm | - | 89 W/m² | - |
| 1787793616 | 23.33° C | 36% | 1018.4 hPa | 0 mm | - | 73 W/m² | - |
| 1787793016 | 23.89° C | 31% | 1018.4 hPa | 0 mm | - | 91 W/m² | - |
| 1787792416 | 25° C | 31% | 1019 hPa | 0 mm | - | 78 W/m² | - |
| 1787791818 | 25.56° C | 28% | 1018.8 hPa | 0 mm | - | 155 W/m² | - |
| 1787791216 | 25.56° C | 30% | 1018.7 hPa | 0 mm | - | 175 W/m² | - |
| 1787790617 | 25.56° C | 30% | 1018.7 hPa | 0 mm | - | 329 W/m² | - |
| 1787790016 | 25° C | 30% | 1018.3 hPa | 0 mm | - | 173 W/m² | - |
| 1787789416 | 26.11° C | 30% | 1018.8 hPa | 0 mm | - | 177 W/m² | - |
| 1787788816 | 25.56° C | 25% | 1018.4 hPa | 0 mm | - | 206 W/m² | - |
| 1787788216 | 26.67° C | 24% | 1018.1 hPa | 0 mm | - | 182 W/m² | - |
| 1787787616 | 27.78° C | 18% | 1018.1 hPa | 0 mm | - | 350 W/m² | - |
| 1787787016 | 27.78° C | 23% | 1018.2 hPa | 0 mm | - | 486 W/m² | - |
| 1787786415 | 27.78° C | 22% | 1018.2 hPa | 0 mm | - | 580 W/m² | - |
| 1787785816 | 28.33° C | 27% | 1018.9 hPa | 0 mm | - | 534 W/m² | - |
| 1787785216 | 28.33° C | 25% | 1018.9 hPa | 0 mm | - | 637 W/m² | - |
| 1787784616 | 28.89° C | 27% | 1019.1 hPa | 0 mm | - | 542 W/m² | - |
| 1787784016 | 29.44° C | 26% | 1019.6 hPa | 0 mm | - | 812 W/m² | - |
| 1787783416 | 28.33° C | 17% | 1019 hPa | 0 mm | - | 569 W/m² | - |
| 1787782816 | 27.78° C | 30% | 1019.6 hPa | 0 mm | - | 375 W/m² | - |
| 1787782215 | 29.44° C | 26% | 1019.2 hPa | 0 mm | - | 411 W/m² | - |
| 1787781615 | 29.44° C | 19% | 1019.2 hPa | 0 mm | - | 716 W/m² | - |
| 1787781015 | 30° C | 24% | 1020.1 hPa | 0 mm | - | 168 W/m² | - |
* Rain latest hour (hover to see other rain measurements)
** Current wind speed in m/s (hover to see current wind gust speed)